sensor_id;sensor_type;location;lat;lon;timestamp;P1;durP1;ratioP1;P2;durP2;ratioP2
9124;SDS011;4597;48.730;9.114;2023-05-07T00:00:20;2.80;;;2.60;;
9124;SDS011;4597;48.730;9.114;2023-05-07T00:02:46;3.10;;;2.90;;
9124;SDS011;4597;48.730;9.114;2023-05-07T00:05:12;2.80;;;2.60;;
9124;SDS011;4597;48.730;9.114;2023-05-07T00:07:38;2.87;;;2.67;;
9124;SDS011;4597;48.730;9.114;2023-05-07T00:10:04;3.10;;;2.80;;
9124;SDS011;4597;48.730;9.114;2023-05-07T00:12:31;3.70;;;2.50;;
9124;SDS011;4597;48.730;9.114;2023-05-07T00:14:58;2.97;;;2.77;;
9124;SDS011;4597;48.730;9.114;2023-05-07T00:17:24;4.33;;;3.10;;
9124;SDS011;4597;48.730;9.114;2023-05-07T00:19:50;3.40;;;3.20;;
9124;SDS011;4597;48.730;9.114;2023-05-07T00:22:15;3.87;;;3.00;;
9124;SDS011;4597;48.730;9.114;2023-05-07T00:24:41;3.50;;;3.20;;
9124;SDS011;4597;48.730;9.114;2023-05-07T00:27:07;2.90;;;2.70;;
9124;SDS011;4597;48.730;9.114;2023-05-07T00:29:32;3.10;;;2.90;;
9124;SDS011;4597;48.730;9.114;2023-05-07T00:31:58;3.00;;;2.77;;
9124;SDS011;4597;48.730;9.114;2023-05-07T00:34:23;3.17;;;2.77;;
9124;SDS011;4597;48.730;9.114;2023-05-07T00:36:49;3.40;;;3.20;;
9124;SDS011;4597;48.730;9.114;2023-05-07T00:39:14;3.23;;;2.83;;
9124;SDS011;4597;48.730;9.114;2023-05-07T00:41:40;2.70;;;2.60;;
9124;SDS011;4597;48.730;9.114;2023-05-07T00:44:05;3.40;;;2.67;;
9124;SDS011;4597;48.730;9.114;2023-05-07T00:46:31;3.23;;;2.70;;
9124;SDS011;4597;48.730;9.114;2023-05-07T00:48:57;2.87;;;2.40;;
9124;SDS011;4597;48.730;9.114;2023-05-07T00:51:24;2.83;;;2.63;;
9124;SDS011;4597;48.730;9.114;2023-05-07T00:53:52;3.00;;;2.80;;
9124;SDS011;4597;48.730;9.114;2023-05-07T00:56:18;2.80;;;2.60;;
9124;SDS011;4597;48.730;9.114;2023-05-07T00:58:45;2.97;;;2.77;;
9124;SDS011;4597;48.730;9.114;2023-05-07T01:01:11;3.03;;;2.83;;
9124;SDS011;4597;48.730;9.114;2023-05-07T01:03:36;2.40;;;2.30;;
9124;SDS011;4597;48.730;9.114;2023-05-07T01:06:02;3.13;;;2.83;;
9124;SDS011;4597;48.730;9.114;2023-05-07T01:08:30;3.23;;;2.90;;
9124;SDS011;4597;48.730;9.114;2023-05-07T01:10:57;3.20;;;2.97;;
9124;SDS011;4597;48.730;9.114;2023-05-07T01:13:23;3.30;;;3.00;;
9124;SDS011;4597;48.730;9.114;2023-05-07T01:15:49;4.00;;;3.00;;
9124;SDS011;4597;48.730;9.114;2023-05-07T01:18:15;3.03;;;2.77;;
9124;SDS011;4597;48.730;9.114;2023-05-07T01:20:41;3.20;;;3.00;;
9124;SDS011;4597;48.730;9.114;2023-05-07T01:23:07;2.93;;;2.73;;
9124;SDS011;4597;48.730;9.114;2023-05-07T01:25:33;3.93;;;2.67;;
9124;SDS011;4597;48.730;9.114;2023-05-07T01:27:59;3.50;;;3.20;;
9124;SDS011;4597;48.730;9.114;2023-05-07T01:30:26;3.47;;;2.97;;
9124;SDS011;4597;48.730;9.114;2023-05-07T01:32:59;5.00;;;3.30;;
9124;SDS011;4597;48.730;9.114;2023-05-07T01:35:37;3.37;;;2.97;;
9124;SDS011;4597;48.730;9.114;2023-05-07T01:38:05;3.10;;;2.83;;
9124;SDS011;4597;48.730;9.114;2023-05-07T01:40:31;3.77;;;2.93;;
9124;SDS011;4597;48.730;9.114;2023-05-07T01:42:59;3.60;;;3.30;;
9124;SDS011;4597;48.730;9.114;2023-05-07T01:45:24;3.60;;;3.30;;
9124;SDS011;4597;48.730;9.114;2023-05-07T01:47:50;2.93;;;2.73;;
9124;SDS011;4597;48.730;9.114;2023-05-07T01:50:17;3.03;;;2.83;;
9124;SDS011;4597;48.730;9.114;2023-05-07T01:52:44;3.20;;;2.90;;
9124;SDS011;4597;48.730;9.114;2023-05-07T01:55:09;4.43;;;2.97;;
9124;SDS011;4597;48.730;9.114;2023-05-07T01:57:35;3.60;;;3.33;;
9124;SDS011;4597;48.730;9.114;2023-05-07T02:00:01;3.60;;;3.30;;
9124;SDS011;4597;48.730;9.114;2023-05-07T02:02:31;3.07;;;2.87;;
9124;SDS011;4597;48.730;9.114;2023-05-07T02:04:56;3.23;;;3.03;;
9124;SDS011;4597;48.730;9.114;2023-05-07T02:07:23;3.20;;;2.97;;
9124;SDS011;4597;48.730;9.114;2023-05-07T02:09:49;3.40;;;3.20;;
9124;SDS011;4597;48.730;9.114;2023-05-07T02:12:14;3.30;;;3.10;;
9124;SDS011;4597;48.730;9.114;2023-05-07T02:14:40;3.23;;;3.03;;
9124;SDS011;4597;48.730;9.114;2023-05-07T02:17:05;3.20;;;3.00;;
9124;SDS011;4597;48.730;9.114;2023-05-07T02:19:31;3.67;;;3.40;;
9124;SDS011;4597;48.730;9.114;2023-05-07T02:21:56;3.17;;;2.97;;
9124;SDS011;4597;48.730;9.114;2023-05-07T02:24:22;3.20;;;3.00;;
9124;SDS011;4597;48.730;9.114;2023-05-07T02:26:47;3.37;;;3.17;;
9124;SDS011;4597;48.730;9.114;2023-05-07T02:29:13;3.57;;;3.30;;
9124;SDS011;4597;48.730;9.114;2023-05-07T02:31:38;3.40;;;3.20;;
9124;SDS011;4597;48.730;9.114;2023-05-07T02:34:04;5.17;;;3.17;;
9124;SDS011;4597;48.730;9.114;2023-05-07T02:36:29;4.17;;;3.17;;
9124;SDS011;4597;48.730;9.114;2023-05-07T02:38:55;3.40;;;2.87;;
9124;SDS011;4597;48.730;9.114;2023-05-07T02:41:20;3.70;;;3.50;;
9124;SDS011;4597;48.730;9.114;2023-05-07T02:43:46;3.83;;;3.53;;
9124;SDS011;4597;48.730;9.114;2023-05-07T02:46:12;3.47;;;3.23;;
9124;SDS011;4597;48.730;9.114;2023-05-07T02:48:37;3.77;;;3.57;;
9124;SDS011;4597;48.730;9.114;2023-05-07T02:51:03;4.00;;;3.70;;
9124;SDS011;4597;48.730;9.114;2023-05-07T02:53:29;3.50;;;3.23;;
9124;SDS011;4597;48.730;9.114;2023-05-07T02:55:58;4.13;;;3.80;;
9124;SDS011;4597;48.730;9.114;2023-05-07T02:58:24;3.70;;;3.40;;
9124;SDS011;4597;48.730;9.114;2023-05-07T03:00:51;7.30;;;3.60;;
9124;SDS011;4597;48.730;9.114;2023-05-07T03:03:17;3.40;;;3.20;;
9124;SDS011;4597;48.730;9.114;2023-05-07T03:05:42;3.80;;;3.50;;
9124;SDS011;4597;48.730;9.114;2023-05-07T03:08:08;3.40;;;3.10;;
9124;SDS011;4597;48.730;9.114;2023-05-07T03:10:35;3.93;;;3.63;;
9124;SDS011;4597;48.730;9.114;2023-05-07T03:13:01;3.50;;;3.20;;
9124;SDS011;4597;48.730;9.114;2023-05-07T03:15:27;3.60;;;3.30;;
9124;SDS011;4597;48.730;9.114;2023-05-07T03:17:52;3.77;;;3.53;;
9124;SDS011;4597;48.730;9.114;2023-05-07T03:20:18;3.30;;;3.00;;
9124;SDS011;4597;48.730;9.114;2023-05-07T03:22:44;3.90;;;3.27;;
9124;SDS011;4597;48.730;9.114;2023-05-07T03:25:09;3.70;;;3.40;;
9124;SDS011;4597;48.730;9.114;2023-05-07T03:27:35;3.63;;;3.43;;
9124;SDS011;4597;48.730;9.114;2023-05-07T03:30:01;4.37;;;4.00;;
9124;SDS011;4597;48.730;9.114;2023-05-07T03:32:27;3.90;;;3.50;;
9124;SDS011;4597;48.730;9.114;2023-05-07T03:34:52;4.10;;;3.70;;
9124;SDS011;4597;48.730;9.114;2023-05-07T03:37:18;3.50;;;3.20;;
9124;SDS011;4597;48.730;9.114;2023-05-07T03:39:44;4.67;;;3.50;;
9124;SDS011;4597;48.730;9.114;2023-05-07T03:42:09;3.97;;;3.30;;
9124;SDS011;4597;48.730;9.114;2023-05-07T03:44:35;3.50;;;3.10;;
9124;SDS011;4597;48.730;9.114;2023-05-07T03:47:03;3.90;;;3.60;;
9124;SDS011;4597;48.730;9.114;2023-05-07T03:49:29;4.20;;;3.17;;
9124;SDS011;4597;48.730;9.114;2023-05-07T03:51:55;4.40;;;3.73;;
9124;SDS011;4597;48.730;9.114;2023-05-07T03:54:20;3.43;;;3.20;;
9124;SDS011;4597;48.730;9.114;2023-05-07T03:56:46;3.27;;;3.07;;
9124;SDS011;4597;48.730;9.114;2023-05-07T03:59:12;3.23;;;3.03;;
9124;SDS011;4597;48.730;9.114;2023-05-07T04:01:38;4.00;;;3.70;;
9124;SDS011;4597;48.730;9.114;2023-05-07T04:04:03;4.00;;;3.70;;
9124;SDS011;4597;48.730;9.114;2023-05-07T04:06:29;3.70;;;3.50;;
9124;SDS011;4597;48.730;9.114;2023-05-07T04:08:55;3.47;;;3.27;;
9124;SDS011;4597;48.730;9.114;2023-05-07T04:11:21;4.40;;;3.40;;
9124;SDS011;4597;48.730;9.114;2023-05-07T04:13:47;3.93;;;3.67;;
9124;SDS011;4597;48.730;9.114;2023-05-07T04:16:12;3.83;;;3.53;;
9124;SDS011;4597;48.730;9.114;2023-05-07T04:18:38;4.10;;;3.50;;
9124;SDS011;4597;48.730;9.114;2023-05-07T04:21:03;3.70;;;3.50;;
9124;SDS011;4597;48.730;9.114;2023-05-07T04:23:29;4.00;;;3.70;;
9124;SDS011;4597;48.730;9.114;2023-05-07T04:25:55;3.83;;;3.53;;
9124;SDS011;4597;48.730;9.114;2023-05-07T04:28:21;4.10;;;3.80;;
9124;SDS011;4597;48.730;9.114;2023-05-07T04:30:46;4.00;;;3.70;;
9124;SDS011;4597;48.730;9.114;2023-05-07T04:33:13;3.70;;;3.50;;
9124;SDS011;4597;48.730;9.114;2023-05-07T04:35:41;3.87;;;3.50;;
9124;SDS011;4597;48.730;9.114;2023-05-07T04:38:07;3.70;;;3.40;;
9124;SDS011;4597;48.730;9.114;2023-05-07T04:40:32;4.20;;;3.80;;
9124;SDS011;4597;48.730;9.114;2023-05-07T04:43:00;3.90;;;3.70;;
9124;SDS011;4597;48.730;9.114;2023-05-07T04:45:26;4.20;;;3.90;;
9124;SDS011;4597;48.730;9.114;2023-05-07T04:47:51;3.50;;;3.30;;
9124;SDS011;4597;48.730;9.114;2023-05-07T04:50:17;3.83;;;3.53;;
9124;SDS011;4597;48.730;9.114;2023-05-07T04:52:44;3.57;;;3.27;;
9124;SDS011;4597;48.730;9.114;2023-05-07T04:55:10;3.63;;;3.40;;
9124;SDS011;4597;48.730;9.114;2023-05-07T04:57:36;3.53;;;3.23;;
9124;SDS011;4597;48.730;9.114;2023-05-07T05:00:02;3.90;;;3.60;;
9124;SDS011;4597;48.730;9.114;2023-05-07T05:02:29;3.60;;;3.30;;
9124;SDS011;4597;48.730;9.114;2023-05-07T05:04:54;3.70;;;3.40;;
9124;SDS011;4597;48.730;9.114;2023-05-07T05:07:20;4.90;;;3.63;;
9124;SDS011;4597;48.730;9.114;2023-05-07T05:09:45;3.57;;;3.27;;
9124;SDS011;4597;48.730;9.114;2023-05-07T05:12:11;3.90;;;3.50;;
9124;SDS011;4597;48.730;9.114;2023-05-07T05:14:36;3.63;;;3.43;;
9124;SDS011;4597;48.730;9.114;2023-05-07T05:17:02;3.77;;;3.50;;
9124;SDS011;4597;48.730;9.114;2023-05-07T05:19:27;3.40;;;3.20;;
9124;SDS011;4597;48.730;9.114;2023-05-07T05:21:53;5.13;;;3.80;;
9124;SDS011;4597;48.730;9.114;2023-05-07T05:24:19;3.70;;;3.50;;
9124;SDS011;4597;48.730;9.114;2023-05-07T05:26:44;3.50;;;3.30;;
9124;SDS011;4597;48.730;9.114;2023-05-07T05:29:10;3.70;;;3.40;;
9124;SDS011;4597;48.730;9.114;2023-05-07T05:31:36;4.17;;;3.57;;
9124;SDS011;4597;48.730;9.114;2023-05-07T05:34:02;4.07;;;3.77;;
9124;SDS011;4597;48.730;9.114;2023-05-07T05:36:27;3.90;;;3.50;;
9124;SDS011;4597;48.730;9.114;2023-05-07T05:38:53;3.53;;;3.33;;
9124;SDS011;4597;48.730;9.114;2023-05-07T05:41:18;3.67;;;3.37;;
9124;SDS011;4597;48.730;9.114;2023-05-07T05:43:44;3.70;;;3.40;;
9124;SDS011;4597;48.730;9.114;2023-05-07T05:46:09;3.97;;;3.63;;
9124;SDS011;4597;48.730;9.114;2023-05-07T05:48:36;4.47;;;3.70;;
9124;SDS011;4597;48.730;9.114;2023-05-07T05:51:02;4.23;;;3.83;;
9124;SDS011;4597;48.730;9.114;2023-05-07T05:53:27;4.07;;;3.70;;
9124;SDS011;4597;48.730;9.114;2023-05-07T05:55:53;4.10;;;3.70;;
9124;SDS011;4597;48.730;9.114;2023-05-07T05:58:18;4.00;;;3.70;;
9124;SDS011;4597;48.730;9.114;2023-05-07T06:00:46;3.97;;;3.67;;
9124;SDS011;4597;48.730;9.114;2023-05-07T06:03:13;5.73;;;4.07;;
9124;SDS011;4597;48.730;9.114;2023-05-07T06:05:38;4.00;;;3.70;;
9124;SDS011;4597;48.730;9.114;2023-05-07T06:08:04;4.17;;;3.87;;
9124;SDS011;4597;48.730;9.114;2023-05-07T06:10:30;4.37;;;3.97;;
9124;SDS011;4597;48.730;9.114;2023-05-07T06:12:55;3.90;;;3.60;;
9124;SDS011;4597;48.730;9.114;2023-05-07T06:15:21;3.90;;;3.60;;
9124;SDS011;4597;48.730;9.114;2023-05-07T06:17:46;4.70;;;4.40;;
9124;SDS011;4597;48.730;9.114;2023-05-07T06:20:12;4.40;;;4.00;;
9124;SDS011;4597;48.730;9.114;2023-05-07T06:22:37;4.03;;;3.73;;
9124;SDS011;4597;48.730;9.114;2023-05-07T06:25:03;4.23;;;3.93;;
9124;SDS011;4597;48.730;9.114;2023-05-07T06:27:29;4.10;;;3.70;;
9124;SDS011;4597;48.730;9.114;2023-05-07T06:29:54;3.87;;;3.57;;
9124;SDS011;4597;48.730;9.114;2023-05-07T06:32:20;4.50;;;3.80;;
9124;SDS011;4597;48.730;9.114;2023-05-07T06:34:45;3.90;;;3.70;;
9124;SDS011;4597;48.730;9.114;2023-05-07T06:37:11;3.60;;;3.40;;
9124;SDS011;4597;48.730;9.114;2023-05-07T06:39:36;4.00;;;3.70;;
9124;SDS011;4597;48.730;9.114;2023-05-07T06:42:02;4.20;;;3.90;;
9124;SDS011;4597;48.730;9.114;2023-05-07T06:44:29;3.63;;;3.30;;
9124;SDS011;4597;48.730;9.114;2023-05-07T06:46:55;3.70;;;3.40;;
9124;SDS011;4597;48.730;9.114;2023-05-07T06:49:20;3.60;;;3.40;;
9124;SDS011;4597;48.730;9.114;2023-05-07T06:51:46;3.50;;;3.30;;
9124;SDS011;4597;48.730;9.114;2023-05-07T06:54:11;3.93;;;3.30;;
9124;SDS011;4597;48.730;9.114;2023-05-07T06:56:37;4.67;;;3.57;;
9124;SDS011;4597;48.730;9.114;2023-05-07T06:59:02;3.93;;;3.20;;
9124;SDS011;4597;48.730;9.114;2023-05-07T07:01:28;3.53;;;3.23;;
9124;SDS011;4597;48.730;9.114;2023-05-07T07:03:54;3.47;;;3.20;;
9124;SDS011;4597;48.730;9.114;2023-05-07T07:06:20;4.00;;;3.30;;
9124;SDS011;4597;48.730;9.114;2023-05-07T07:08:45;3.57;;;3.37;;
9124;SDS011;4597;48.730;9.114;2023-05-07T07:11:11;3.37;;;3.07;;
9124;SDS011;4597;48.730;9.114;2023-05-07T07:13:36;3.20;;;2.90;;
9124;SDS011;4597;48.730;9.114;2023-05-07T07:16:02;3.07;;;2.83;;
9124;SDS011;4597;48.730;9.114;2023-05-07T07:18:28;3.53;;;3.23;;
9124;SDS011;4597;48.730;9.114;2023-05-07T07:20:54;4.33;;;2.90;;
9124;SDS011;4597;48.730;9.114;2023-05-07T07:23:19;3.67;;;3.30;;
9124;SDS011;4597;48.730;9.114;2023-05-07T07:25:45;3.60;;;3.37;;
9124;SDS011;4597;48.730;9.114;2023-05-07T07:28:11;3.17;;;2.87;;
9124;SDS011;4597;48.730;9.114;2023-05-07T07:30:37;3.20;;;2.90;;
9124;SDS011;4597;48.730;9.114;2023-05-07T07:33:03;3.30;;;3.10;;
9124;SDS011;4597;48.730;9.114;2023-05-07T07:35:29;3.33;;;3.07;;
9124;SDS011;4597;48.730;9.114;2023-05-07T07:37:55;4.53;;;3.40;;
9124;SDS011;4597;48.730;9.114;2023-05-07T07:40:20;3.27;;;2.97;;
9124;SDS011;4597;48.730;9.114;2023-05-07T07:42:46;3.23;;;2.80;;
9124;SDS011;4597;48.730;9.114;2023-05-07T07:45:11;3.83;;;3.20;;
9124;SDS011;4597;48.730;9.114;2023-05-07T07:47:37;3.10;;;2.70;;
9124;SDS011;4597;48.730;9.114;2023-05-07T07:50:04;5.23;;;3.00;;
9124;SDS011;4597;48.730;9.114;2023-05-07T07:52:30;3.60;;;2.90;;
9124;SDS011;4597;48.730;9.114;2023-05-07T07:54:56;2.87;;;2.73;;
9124;SDS011;4597;48.730;9.114;2023-05-07T07:57:21;3.23;;;3.03;;
9124;SDS011;4597;48.730;9.114;2023-05-07T07:59:47;3.00;;;2.90;;
9124;SDS011;4597;48.730;9.114;2023-05-07T08:02:12;3.17;;;2.97;;
9124;SDS011;4597;48.730;9.114;2023-05-07T08:04:38;3.87;;;2.87;;
9124;SDS011;4597;48.730;9.114;2023-05-07T08:07:03;2.97;;;2.77;;
9124;SDS011;4597;48.730;9.114;2023-05-07T08:09:29;2.90;;;2.80;;
9124;SDS011;4597;48.730;9.114;2023-05-07T08:11:54;3.33;;;3.23;;
9124;SDS011;4597;48.730;9.114;2023-05-07T08:14:20;3.50;;;3.20;;
9124;SDS011;4597;48.730;9.114;2023-05-07T08:16:45;3.00;;;2.80;;
9124;SDS011;4597;48.730;9.114;2023-05-07T08:19:11;3.07;;;2.87;;
9124;SDS011;4597;48.730;9.114;2023-05-07T08:21:38;5.17;;;3.37;;
9124;SDS011;4597;48.730;9.114;2023-05-07T08:24:04;3.33;;;3.07;;
9124;SDS011;4597;48.730;9.114;2023-05-07T08:26:30;3.40;;;3.10;;
9124;SDS011;4597;48.730;9.114;2023-05-07T08:28:55;3.20;;;2.90;;
9124;SDS011;4597;48.730;9.114;2023-05-07T08:31:21;3.43;;;3.13;;
9124;SDS011;4597;48.730;9.114;2023-05-07T08:33:47;3.30;;;3.00;;
9124;SDS011;4597;48.730;9.114;2023-05-07T08:36:12;3.00;;;2.80;;
9124;SDS011;4597;48.730;9.114;2023-05-07T08:38:38;3.50;;;3.20;;
9124;SDS011;4597;48.730;9.114;2023-05-07T08:41:05;3.90;;;3.10;;
9124;SDS011;4597;48.730;9.114;2023-05-07T08:43:32;3.23;;;3.00;;
9124;SDS011;4597;48.730;9.114;2023-05-07T08:46:01;3.20;;;3.00;;
9124;SDS011;4597;48.730;9.114;2023-05-07T08:48:27;3.33;;;3.17;;
9124;SDS011;4597;48.730;9.114;2023-05-07T08:50:55;3.53;;;3.33;;
9124;SDS011;4597;48.730;9.114;2023-05-07T08:53:21;4.00;;;3.10;;
9124;SDS011;4597;48.730;9.114;2023-05-07T08:55:46;3.27;;;3.07;;
9124;SDS011;4597;48.730;9.114;2023-05-07T08:58:13;3.27;;;3.07;;
9124;SDS011;4597;48.730;9.114;2023-05-07T09:00:39;3.90;;;3.37;;
9124;SDS011;4597;48.730;9.114;2023-05-07T09:03:06;2.80;;;2.70;;
9124;SDS011;4597;48.730;9.114;2023-05-07T09:05:32;3.77;;;3.43;;
9124;SDS011;4597;48.730;9.114;2023-05-07T09:08:04;3.43;;;3.13;;
9124;SDS011;4597;48.730;9.114;2023-05-07T09:10:32;3.27;;;2.97;;
9124;SDS011;4597;48.730;9.114;2023-05-07T09:12:58;3.13;;;2.83;;
9124;SDS011;4597;48.730;9.114;2023-05-07T09:15:24;3.13;;;2.93;;
9124;SDS011;4597;48.730;9.114;2023-05-07T09:17:50;3.67;;;3.40;;
9124;SDS011;4597;48.730;9.114;2023-05-07T09:20:16;3.50;;;3.30;;
9124;SDS011;4597;48.730;9.114;2023-05-07T09:22:42;3.33;;;3.13;;
9124;SDS011;4597;48.730;9.114;2023-05-07T09:25:09;3.50;;;3.20;;
9124;SDS011;4597;48.730;9.114;2023-05-07T09:27:35;4.00;;;3.70;;
9124;SDS011;4597;48.730;9.114;2023-05-07T09:30:04;3.50;;;3.30;;
9124;SDS011;4597;48.730;9.114;2023-05-07T09:32:36;3.23;;;2.93;;
9124;SDS011;4597;48.730;9.114;2023-05-07T09:35:05;3.30;;;3.10;;
9124;SDS011;4597;48.730;9.114;2023-05-07T09:37:39;3.43;;;3.13;;
9124;SDS011;4597;48.730;9.114;2023-05-07T09:40:06;3.60;;;3.30;;
9124;SDS011;4597;48.730;9.114;2023-05-07T09:42:32;3.63;;;3.33;;
9124;SDS011;4597;48.730;9.114;2023-05-07T09:44:58;3.83;;;3.50;;
9124;SDS011;4597;48.730;9.114;2023-05-07T09:47:24;3.40;;;3.20;;
9124;SDS011;4597;48.730;9.114;2023-05-07T09:49:55;4.47;;;4.07;;
9124;SDS011;4597;48.730;9.114;2023-05-07T09:52:22;3.80;;;3.33;;
9124;SDS011;4597;48.730;9.114;2023-05-07T09:54:49;3.43;;;3.23;;
9124;SDS011;4597;48.730;9.114;2023-05-07T09:57:16;4.07;;;3.77;;
9124;SDS011;4597;48.730;9.114;2023-05-07T09:59:44;3.20;;;3.00;;
9124;SDS011;4597;48.730;9.114;2023-05-07T10:02:11;4.33;;;3.97;;
9124;SDS011;4597;48.730;9.114;2023-05-07T10:04:39;4.27;;;3.97;;
9124;SDS011;4597;48.730;9.114;2023-05-07T10:07:05;4.50;;;4.10;;
9124;SDS011;4597;48.730;9.114;2023-05-07T10:09:32;5.03;;;4.73;;
9124;SDS011;4597;48.730;9.114;2023-05-07T10:12:03;4.43;;;3.70;;
9124;SDS011;4597;48.730;9.114;2023-05-07T10:14:30;4.30;;;4.00;;
9124;SDS011;4597;48.730;9.114;2023-05-07T10:16:55;3.90;;;3.60;;
9124;SDS011;4597;48.730;9.114;2023-05-07T10:19:22;3.73;;;3.43;;
9124;SDS011;4597;48.730;9.114;2023-05-07T10:21:51;4.40;;;4.10;;
9124;SDS011;4597;48.730;9.114;2023-05-07T10:24:22;4.00;;;3.70;;
9124;SDS011;4597;48.730;9.114;2023-05-07T10:26:51;5.97;;;3.80;;
9124;SDS011;4597;48.730;9.114;2023-05-07T10:31:56;3.87;;;3.57;;
9124;SDS011;4597;48.730;9.114;2023-05-07T10:34:28;3.77;;;3.50;;
9124;SDS011;4597;48.730;9.114;2023-05-07T10:37:02;4.43;;;4.13;;
9124;SDS011;4597;48.730;9.114;2023-05-07T10:39:29;4.97;;;3.40;;
9124;SDS011;4597;48.730;9.114;2023-05-07T10:41:54;4.90;;;3.90;;
9124;SDS011;4597;48.730;9.114;2023-05-07T10:44:29;3.20;;;3.10;;
9124;SDS011;4597;48.730;9.114;2023-05-07T10:49:52;4.07;;;3.77;;
9124;SDS011;4597;48.730;9.114;2023-05-07T10:52:21;3.00;;;2.80;;
9124;SDS011;4597;48.730;9.114;2023-05-07T10:55:18;3.67;;;3.20;;
9124;SDS011;4597;48.730;9.114;2023-05-07T10:57:53;3.60;;;3.30;;
9124;SDS011;4597;48.730;9.114;2023-05-07T11:05:25;3.30;;;3.00;;
9124;SDS011;4597;48.730;9.114;2023-05-07T11:07:55;3.00;;;2.90;;
9124;SDS011;4597;48.730;9.114;2023-05-07T11:10:22;3.47;;;3.27;;
9124;SDS011;4597;48.730;9.114;2023-05-07T11:12:49;3.30;;;3.10;;
9124;SDS011;4597;48.730;9.114;2023-05-07T11:15:15;3.67;;;3.40;;
9124;SDS011;4597;48.730;9.114;2023-05-07T11:17:59;3.27;;;3.07;;
9124;SDS011;4597;48.730;9.114;2023-05-07T11:26:12;5.67;;;3.50;;
9124;SDS011;4597;48.730;9.114;2023-05-07T11:28:39;3.28;;;2.97;;
9124;SDS011;4597;48.730;9.114;2023-05-07T11:31:07;3.20;;;2.92;;
9124;SDS011;4597;48.730;9.114;2023-05-07T11:33:33;2.90;;;2.70;;
9124;SDS011;4597;48.730;9.114;2023-05-07T11:36:00;2.80;;;2.60;;
9124;SDS011;4597;48.730;9.114;2023-05-07T11:38:28;3.35;;;3.20;;
9124;SDS011;4597;48.730;9.114;2023-05-07T11:41:03;2.90;;;2.70;;
9124;SDS011;4597;48.730;9.114;2023-05-07T11:43:30;2.38;;;2.28;;
9124;SDS011;4597;48.730;9.114;2023-05-07T11:46:04;2.90;;;2.70;;
9124;SDS011;4597;48.730;9.114;2023-05-07T11:48:37;3.03;;;2.70;;
9124;SDS011;4597;48.730;9.114;2023-05-07T11:51:04;2.58;;;2.47;;
9124;SDS011;4597;48.730;9.114;2023-05-07T11:53:40;3.40;;;2.45;;
9124;SDS011;4597;48.730;9.114;2023-05-07T11:56:07;2.95;;;2.60;;
9124;SDS011;4597;48.730;9.114;2023-05-07T11:58:34;3.00;;;2.60;;
9124;SDS011;4597;48.730;9.114;2023-05-07T12:01:00;3.20;;;2.90;;
9124;SDS011;4597;48.730;9.114;2023-05-07T12:03:25;2.72;;;2.63;;
9124;SDS011;4597;48.730;9.114;2023-05-07T12:05:51;2.72;;;2.53;;
9124;SDS011;4597;48.730;9.114;2023-05-07T12:08:17;2.80;;;2.60;;
9124;SDS011;4597;48.730;9.114;2023-05-07T12:10:44;2.67;;;2.58;;
9124;SDS011;4597;48.730;9.114;2023-05-07T12:13:18;2.45;;;2.35;;
9124;SDS011;4597;48.730;9.114;2023-05-07T12:15:45;3.45;;;2.97;;
9124;SDS011;4597;48.730;9.114;2023-05-07T12:18:11;2.63;;;2.53;;
9124;SDS011;4597;48.730;9.114;2023-05-07T12:20:38;2.63;;;2.42;;
9124;SDS011;4597;48.730;9.114;2023-05-07T12:23:04;2.78;;;2.50;;
9124;SDS011;4597;48.730;9.114;2023-05-07T12:25:39;2.40;;;2.30;;
9124;SDS011;4597;48.730;9.114;2023-05-07T12:28:15;2.78;;;2.58;;
9124;SDS011;4597;48.730;9.114;2023-05-07T12:30:42;2.50;;;2.40;;
9124;SDS011;4597;48.730;9.114;2023-05-07T12:33:10;9.73;;;3.33;;
9124;SDS011;4597;48.730;9.114;2023-05-07T12:35:37;2.90;;;2.70;;
9124;SDS011;4597;48.730;9.114;2023-05-07T12:38:24;2.83;;;2.63;;
9124;SDS011;4597;48.730;9.114;2023-05-07T12:40:53;2.22;;;2.13;;
9124;SDS011;4597;48.730;9.114;2023-05-07T12:43:27;2.80;;;2.60;;
9124;SDS011;4597;48.730;9.114;2023-05-07T12:45:54;2.30;;;2.20;;
9124;SDS011;4597;48.730;9.114;2023-05-07T12:48:22;2.33;;;2.22;;
9124;SDS011;4597;48.730;9.114;2023-05-07T12:50:49;1.90;;;1.80;;
9124;SDS011;4597;48.730;9.114;2023-05-07T12:53:20;3.20;;;2.17;;
9124;SDS011;4597;48.730;9.114;2023-05-07T12:55:47;2.40;;;2.30;;
9124;SDS011;4597;48.730;9.114;2023-05-07T12:58:15;2.47;;;2.28;;
9124;SDS011;4597;48.730;9.114;2023-05-07T13:00:55;2.63;;;2.47;;
9124;SDS011;4597;48.730;9.114;2023-05-07T13:03:24;3.20;;;2.90;;
9124;SDS011;4597;48.730;9.114;2023-05-07T13:05:51;3.15;;;2.90;;
9124;SDS011;4597;48.730;9.114;2023-05-07T13:08:50;2.78;;;2.58;;
9124;SDS011;4597;48.730;9.114;2023-05-07T13:11:10;2.72;;;2.63;;
9124;SDS011;4597;48.730;9.114;2023-05-07T13:13:36;2.70;;;2.50;;
9124;SDS011;4597;48.730;9.114;2023-05-07T13:16:04;2.78;;;2.50;;
9124;SDS011;4597;48.730;9.114;2023-05-07T13:18:31;2.70;;;2.50;;
9124;SDS011;4597;48.730;9.114;2023-05-07T13:20:57;2.80;;;2.45;;
9124;SDS011;4597;48.730;9.114;2023-05-07T13:23:23;3.08;;;2.42;;
9124;SDS011;4597;48.730;9.114;2023-05-07T13:25:49;3.25;;;2.70;;
9124;SDS011;4597;48.730;9.114;2023-05-07T13:28:15;2.42;;;2.30;;
9124;SDS011;4597;48.730;9.114;2023-05-07T13:30:40;2.15;;;2.05;;
9124;SDS011;4597;48.730;9.114;2023-05-07T13:33:06;2.13;;;2.03;;
9124;SDS011;4597;48.730;9.114;2023-05-07T13:35:32;1.80;;;1.70;;
9124;SDS011;4597;48.730;9.114;2023-05-07T13:37:58;2.30;;;2.20;;
9124;SDS011;4597;48.730;9.114;2023-05-07T13:40:24;2.20;;;2.10;;
9124;SDS011;4597;48.730;9.114;2023-05-07T13:42:49;2.30;;;2.03;;
9124;SDS011;4597;48.730;9.114;2023-05-07T13:45:15;1.90;;;1.80;;
9124;SDS011;4597;48.730;9.114;2023-05-07T13:47:42;1.80;;;1.70;;
9124;SDS011;4597;48.730;9.114;2023-05-07T13:50:08;1.97;;;1.87;;
9124;SDS011;4597;48.730;9.114;2023-05-07T13:52:36;2.40;;;2.20;;
9124;SDS011;4597;48.730;9.114;2023-05-07T13:55:02;2.30;;;2.10;;
9124;SDS011;4597;48.730;9.114;2023-05-07T13:57:28;2.20;;;2.10;;
9124;SDS011;4597;48.730;9.114;2023-05-07T13:59:53;2.40;;;2.20;;
9124;SDS011;4597;48.730;9.114;2023-05-07T14:02:18;2.70;;;2.43;;
9124;SDS011;4597;48.730;9.114;2023-05-07T14:04:44;3.30;;;2.10;;
9124;SDS011;4597;48.730;9.114;2023-05-07T14:07:10;2.10;;;2.00;;
9124;SDS011;4597;48.730;9.114;2023-05-07T14:09:35;2.37;;;2.00;;
9124;SDS011;4597;48.730;9.114;2023-05-07T14:12:01;2.37;;;2.17;;
9124;SDS011;4597;48.730;9.114;2023-05-07T14:14:26;2.50;;;1.90;;
9124;SDS011;4597;48.730;9.114;2023-05-07T14:16:52;1.90;;;1.80;;
9124;SDS011;4597;48.730;9.114;2023-05-07T14:19:18;2.60;;;2.40;;
9124;SDS011;4597;48.730;9.114;2023-05-07T14:21:43;2.10;;;1.97;;
9124;SDS011;4597;48.730;9.114;2023-05-07T14:24:10;3.10;;;2.50;;
9124;SDS011;4597;48.730;9.114;2023-05-07T14:26:35;2.50;;;2.30;;
9124;SDS011;4597;48.730;9.114;2023-05-07T14:29:01;3.93;;;2.13;;
9124;SDS011;4597;48.730;9.114;2023-05-07T14:31:27;3.30;;;2.53;;
9124;SDS011;4597;48.730;9.114;2023-05-07T14:33:53;2.63;;;2.47;;
9124;SDS011;4597;48.730;9.114;2023-05-07T14:36:18;3.57;;;2.40;;
9124;SDS011;4597;48.730;9.114;2023-05-07T14:38:49;2.20;;;2.10;;
9124;SDS011;4597;48.730;9.114;2023-05-07T14:41:15;3.00;;;2.20;;
9124;SDS011;4597;48.730;9.114;2023-05-07T14:43:41;3.93;;;2.57;;
9124;SDS011;4597;48.730;9.114;2023-05-07T14:46:06;4.37;;;2.90;;
9124;SDS011;4597;48.730;9.114;2023-05-07T14:48:32;3.27;;;2.60;;
9124;SDS011;4597;48.730;9.114;2023-05-07T14:50:57;3.60;;;3.07;;
9124;SDS011;4597;48.730;9.114;2023-05-07T14:53:23;2.97;;;2.77;;
9124;SDS011;4597;48.730;9.114;2023-05-07T14:55:48;2.80;;;2.60;;
9124;SDS011;4597;48.730;9.114;2023-05-07T14:58:14;3.57;;;3.00;;
9124;SDS011;4597;48.730;9.114;2023-05-07T15:00:39;4.10;;;2.70;;
9124;SDS011;4597;48.730;9.114;2023-05-07T15:03:06;3.03;;;2.83;;
9124;SDS011;4597;48.730;9.114;2023-05-07T15:05:33;3.47;;;2.73;;
9124;SDS011;4597;48.730;9.114;2023-05-07T15:07:59;4.57;;;3.30;;
9124;SDS011;4597;48.730;9.114;2023-05-07T15:10:24;3.30;;;3.10;;
9124;SDS011;4597;48.730;9.114;2023-05-07T15:12:50;3.80;;;3.40;;
9124;SDS011;4597;48.730;9.114;2023-05-07T15:15:16;4.67;;;3.37;;
9124;SDS011;4597;48.730;9.114;2023-05-07T15:17:41;4.83;;;3.53;;
9124;SDS011;4597;48.730;9.114;2023-05-07T15:20:07;3.03;;;2.73;;
9124;SDS011;4597;48.730;9.114;2023-05-07T15:22:33;4.73;;;2.77;;
9124;SDS011;4597;48.730;9.114;2023-05-07T15:25:01;3.93;;;3.00;;
9124;SDS011;4597;48.730;9.114;2023-05-07T15:27:26;3.03;;;2.77;;